createdAt,value
2022-08-23T00:03:05.929Z,6.60
2022-08-23T00:05:41.380Z,6.03
2022-08-23T00:08:28.829Z,6.55
2022-08-23T00:11:02.941Z,5.82
2022-08-23T00:13:50.824Z,3.53
2022-08-23T00:16:24.513Z,4.15
2022-08-23T00:19:11.804Z,3.95
2022-08-23T00:21:47.002Z,4.03
2022-08-23T00:24:39.220Z,5.38
2022-08-23T00:27:17.641Z,4.93
2022-08-23T00:30:08.825Z,3.60
2022-08-23T00:32:44.026Z,3.25
2022-08-23T00:35:31.843Z,5.32
2022-08-23T00:38:32.960Z,3.03
2022-08-23T00:41:12.818Z,6.38
2022-08-23T00:44:11.815Z,2.95
2022-08-23T00:47:20.847Z,7.35
2022-08-23T00:50:03.039Z,4.28
2022-08-23T00:52:59.859Z,4.20
2022-08-23T00:55:40.832Z,4.43
2022-08-23T00:58:30.839Z,4.28
2022-08-23T01:01:17.919Z,6.95
2022-08-23T01:04:04.917Z,5.57
2022-08-23T01:06:52.871Z,2.83
2022-08-23T01:09:33.922Z,4.45
2022-08-23T01:12:32.631Z,7.75
2022-08-23T01:15:23.242Z,5.53
2022-08-23T01:18:13.838Z,7.32
2022-08-23T01:21:21.865Z,8.75
2022-08-23T01:24:04.845Z,7.97
2022-08-23T01:26:54.869Z,4.05
2022-08-23T01:29:28.540Z,8.32
2022-08-23T01:32:15.888Z,10.32
2022-08-23T01:35:10.885Z,4.03
2022-08-23T01:37:59.095Z,3.05
2022-08-23T01:40:32.986Z,4.68
2022-08-23T01:43:21.872Z,4.80
2022-08-23T01:46:03.900Z,7.25
2022-08-23T01:48:52.861Z,8.30
2022-08-23T01:51:27.118Z,6.18
2022-08-23T01:54:13.880Z,7.18
2022-08-23T01:56:55.873Z,4.05
2022-08-23T01:59:49.877Z,4.78
2022-08-23T02:02:36.867Z,4.13
2022-08-23T02:05:12.929Z,6.57
2022-08-23T02:08:23.874Z,4.97
2022-08-23T02:10:57.940Z,9.18
2022-08-23T02:13:44.888Z,9.23
2022-08-23T02:16:20.206Z,7.25
2022-08-23T02:19:08.911Z,7.88
2022-08-23T02:21:44.027Z,6.10
2022-08-23T02:24:32.889Z,6.88
2022-08-23T02:27:11.952Z,6.22
2022-08-23T02:29:58.895Z,7.32
2022-08-23T02:32:33.941Z,4.90
2022-08-23T02:35:20.864Z,10.60
2022-08-23T02:37:55.333Z,7.32
2022-08-23T02:40:42.891Z,6.90
2022-08-23T02:43:23.888Z,7.15
2022-08-23T02:46:12.885Z,6.35
2022-08-23T02:48:53.877Z,7.68
2022-08-23T02:51:48.861Z,7.25
2022-08-23T02:54:35.904Z,9.82
2022-08-23T02:57:22.903Z,5.30
2022-08-23T03:00:17.892Z,9.73
2022-08-23T03:03:04.907Z,7.07
2022-08-23T03:05:38.972Z,7.63
2022-08-23T03:08:26.884Z,7.55
2022-08-23T03:11:09.773Z,7.43
2022-08-23T03:13:58.894Z,6.75
2022-08-23T03:16:33.018Z,10.57
2022-08-23T03:19:19.904Z,6.70
2022-08-23T03:22:00.902Z,7.25
2022-08-23T03:24:49.913Z,5.25
2022-08-23T03:27:24.028Z,8.93
2022-08-23T03:30:17.790Z,9.05
2022-08-23T03:33:00.896Z,6.18
2022-08-23T03:35:48.961Z,8.38
2022-08-23T03:38:24.039Z,7.65
2022-08-23T03:41:10.954Z,6.28
2022-08-23T03:43:51.947Z,8.38
2022-08-23T03:46:45.951Z,11.27
2022-08-23T03:49:33.956Z,10.15
2022-08-23T03:52:14.946Z,8.90
2022-08-23T03:55:01.942Z,12.38
2022-08-23T03:57:42.939Z,9.55
2022-08-23T04:00:36.908Z,6.85
2022-08-23T04:06:04.926Z,10.55
2022-08-23T04:08:52.947Z,8.85
2022-08-23T04:11:33.931Z,11.13
2022-08-23T04:14:21.949Z,6.53
2022-08-23T04:16:56.105Z,5.60
2022-08-23T04:19:43.935Z,7.35
2022-08-23T04:22:20.093Z,9.82
2022-08-23T04:25:26.108Z,7.28
2022-08-23T04:28:09.957Z,7.45
2022-08-23T04:31:06.936Z,10.35
2022-08-23T04:33:53.963Z,8.45
2022-08-23T04:36:28.001Z,7.03
2022-08-23T04:39:20.930Z,9.38
2022-08-23T04:42:25.933Z,8.25
2022-08-23T04:45:20.924Z,12.15
2022-08-23T04:48:11.823Z,7.82
2022-08-23T04:50:54.955Z,10.23
2022-08-23T04:53:48.932Z,12.35
2022-08-23T04:56:36.925Z,8.73
2022-08-23T04:59:13.106Z,10.27
2022-08-23T05:01:59.958Z,14.13
2022-08-23T05:04:34.527Z,10.30
2022-08-23T05:07:30.854Z,12.02
2022-08-23T05:10:18.056Z,12.13
2022-08-23T05:13:04.953Z,9.63
2022-08-23T05:15:44.977Z,11.40
2022-08-23T05:18:39.972Z,10.57
2022-08-23T05:21:35.931Z,8.88
2022-08-23T05:24:22.961Z,10.95
2022-08-23T05:27:03.977Z,12.50
2022-08-23T05:29:50.967Z,8.32
2022-08-23T05:32:38.997Z,7.45
2022-08-23T05:35:12.810Z,10.15
2022-08-23T05:38:01.083Z,6.88
2022-08-23T05:40:35.547Z,8.38
2022-08-23T05:43:24.960Z,8.02
2022-08-23T05:46:02.501Z,7.70
2022-08-23T05:48:54.029Z,6.47
2022-08-23T05:51:29.965Z,5.50
2022-08-23T05:54:19.978Z,8.65
2022-08-23T05:56:53.583Z,7.75
2022-08-23T05:59:40.036Z,8.93
2022-08-23T06:02:14.521Z,9.65
2022-08-23T06:05:01.986Z,7.38
2022-08-23T06:07:42.981Z,8.00
2022-08-23T06:10:30.961Z,10.35
2022-08-23T06:13:04.596Z,5.78
2022-08-23T06:15:56.977Z,8.43
2022-08-23T06:18:31.582Z,9.90
2022-08-23T06:21:22.967Z,6.97
2022-08-23T06:23:56.608Z,12.63
2022-08-23T06:26:47.005Z,10.27
2022-08-23T06:29:21.282Z,5.78
2022-08-23T06:32:09.023Z,7.95
2022-08-23T06:34:42.642Z,10.23
2022-08-23T06:37:30.016Z,8.90
2022-08-23T06:40:04.566Z,5.88
2022-08-23T06:42:50.986Z,7.22
2022-08-23T06:45:33.790Z,5.53
2022-08-23T06:48:22.991Z,10.65
2022-08-23T06:51:03.029Z,10.30
2022-08-23T06:53:47.063Z,8.48
2022-08-23T06:56:29.988Z,8.02
2022-08-23T06:59:12.207Z,9.15
2022-08-23T07:02:08.228Z,6.88
2022-08-23T07:04:53.902Z,11.60
2022-08-23T07:07:41.360Z,7.40
2022-08-23T07:10:24.121Z,11.88
2022-08-23T07:13:04.987Z,6.80
2022-08-23T07:15:46.090Z,6.80
2022-08-23T07:18:30.004Z,6.68
2022-08-23T07:21:18.987Z,9.00
2022-08-23T07:24:06.011Z,10.93
2022-08-23T07:26:47.008Z,8.43
2022-08-23T07:29:36.014Z,8.45
2022-08-23T07:32:10.204Z,11.65
2022-08-23T07:34:57.008Z,7.20
2022-08-23T07:37:38.042Z,13.30
2022-08-23T07:40:27.743Z,7.25
2022-08-23T07:43:12.025Z,10.20
2022-08-23T07:46:06.053Z,10.57
2022-08-23T07:48:54.656Z,8.60
2022-08-23T07:51:36.045Z,10.03
2022-08-23T07:54:32.007Z,10.73
2022-08-23T07:57:19.051Z,9.60
2022-08-23T08:00:00.013Z,8.07
2022-08-23T08:02:55.094Z,9.15
2022-08-23T08:05:42.033Z,11.38
2022-08-23T08:08:24.028Z,28.35
2022-08-23T08:11:11.042Z,10.70
2022-08-23T08:13:54.018Z,10.00
2022-08-23T08:16:38.605Z,15.88
2022-08-23T08:19:28.036Z,15.13
2022-08-23T08:22:08.053Z,15.05
2022-08-23T08:24:56.053Z,7.05
2022-08-23T08:27:36.064Z,12.75
2022-08-23T08:30:18.173Z,11.88
2022-08-23T08:32:58.119Z,13.98
2022-08-23T08:35:38.116Z,10.18
2022-08-23T08:38:18.064Z,13.80
2022-08-23T08:41:25.146Z,8.40
2022-08-23T08:44:22.047Z,13.75
2022-08-23T08:47:11.039Z,9.10
2022-08-23T08:50:09.794Z,10.75
2022-08-23T08:53:23.070Z,11.50
2022-08-23T08:56:10.234Z,12.07
2022-08-23T08:59:03.051Z,11.73
2022-08-23T09:01:38.293Z,10.98
2022-08-23T09:04:26.083Z,11.30
2022-08-23T09:07:31.134Z,10.27
2022-08-23T09:10:21.065Z,10.77
2022-08-23T09:13:07.924Z,9.38
2022-08-23T09:16:19.119Z,25.65
2022-08-23T09:18:54.723Z,13.68
2022-08-23T09:21:46.069Z,6.22
2022-08-23T09:24:19.697Z,15.60
2022-08-23T09:27:07.064Z,10.50
2022-08-23T09:29:56.265Z,12.48
2022-08-23T09:32:49.076Z,11.88
2022-08-23T09:35:31.069Z,9.90
2022-08-23T09:38:32.094Z,19.48
2022-08-23T09:41:27.077Z,14.05
2022-08-23T09:44:16.206Z,10.77
2022-08-23T09:46:57.132Z,11.20
2022-08-23T09:49:45.071Z,13.93
2022-08-23T09:55:43.136Z,18.20
2022-08-23T09:58:31.809Z,15.45
2022-08-23T10:01:30.178Z,10.68
2022-08-23T10:04:54.114Z,23.58
2022-08-23T10:07:43.000Z,13.57
2022-08-23T10:10:34.073Z,12.70
2022-08-23T10:13:14.072Z,17.58
2022-08-23T10:19:47.829Z,11.35
2022-08-23T10:22:36.164Z,13.05
2022-08-23T10:25:47.084Z,13.63
2022-08-23T10:29:25.105Z,21.50
2022-08-23T10:32:17.106Z,15.73
2022-08-23T10:35:18.157Z,15.30
2022-08-23T10:38:08.097Z,22.75
2022-08-23T10:41:08.447Z,12.07
2022-08-23T10:44:21.085Z,13.30
2022-08-23T10:47:27.486Z,17.98
2022-08-23T10:50:14.084Z,19.48
2022-08-23T10:53:20.243Z,15.02
2022-08-23T10:56:13.108Z,18.70
2022-08-23T10:59:06.107Z,20.42
2022-08-23T11:02:00.945Z,12.52
2022-08-23T11:04:58.124Z,17.52
2022-08-23T11:07:34.925Z,21.17
2022-08-23T11:10:39.084Z,16.65
2022-08-23T11:13:18.354Z,11.98
2022-08-23T11:16:15.166Z,10.40
2022-08-23T11:18:50.240Z,22.60
2022-08-23T11:21:40.110Z,12.43
2022-08-23T11:24:13.637Z,16.05
2022-08-23T11:27:05.832Z,15.07
2022-08-23T11:30:01.092Z,18.42
2022-08-23T11:32:52.119Z,15.10
2022-08-23T11:35:46.222Z,9.95
2022-08-23T11:38:55.139Z,14.32
2022-08-23T11:42:03.613Z,14.73
2022-08-23T11:44:55.131Z,19.63
2022-08-23T11:47:47.204Z,12.55
2022-08-23T11:50:46.143Z,18.98
2022-08-23T11:53:42.202Z,15.40
2022-08-23T11:56:55.144Z,11.83
2022-08-23T12:00:12.149Z,8.23
2022-08-23T12:03:11.245Z,20.92
2022-08-23T12:05:52.152Z,17.50
2022-08-23T12:08:58.124Z,16.08
2022-08-23T12:11:59.148Z,11.95
2022-08-23T12:14:56.186Z,13.15
2022-08-23T12:17:46.136Z,18.80
2022-08-23T12:20:41.176Z,12.70
2022-08-23T12:23:35.141Z,20.33
2022-08-23T12:26:47.153Z,18.25
2022-08-23T12:30:13.147Z,12.85
2022-08-23T12:33:30.135Z,12.90
2022-08-23T12:36:39.173Z,14.75
2022-08-23T12:39:30.316Z,12.38
2022-08-23T12:42:22.171Z,9.68
2022-08-23T12:45:11.259Z,21.13
2022-08-23T12:48:08.133Z,16.20
2022-08-23T12:50:44.292Z,19.33
2022-08-23T12:56:37.242Z,11.43
2022-08-23T12:59:41.172Z,16.95
2022-08-23T13:02:27.303Z,11.73
2022-08-23T13:05:21.158Z,21.15
2022-08-23T13:07:55.241Z,13.27
2022-08-23T13:10:45.175Z,17.65
2022-08-23T13:13:22.120Z,11.65
2022-08-23T13:16:38.260Z,18.83
2022-08-23T13:19:40.175Z,12.63
2022-08-23T13:22:29.202Z,14.38
2022-08-23T13:25:28.058Z,22.92
2022-08-23T13:28:33.655Z,19.25
2022-08-23T13:31:10.352Z,14.50
2022-08-23T13:34:00.177Z,15.30
2022-08-23T13:36:43.438Z,17.55
2022-08-23T13:39:23.188Z,14.13
2022-08-23T13:42:04.267Z,17.88
2022-08-23T13:44:45.192Z,14.18
2022-08-23T13:47:32.315Z,23.55
2022-08-23T13:50:30.180Z,16.73
2022-08-23T13:53:19.283Z,13.55
2022-08-23T13:55:55.945Z,13.82
2022-08-23T13:58:47.177Z,16.27
2022-08-23T14:01:27.237Z,17.95
2022-08-23T14:04:14.219Z,11.88
2022-08-23T14:06:48.979Z,17.85
2022-08-23T14:09:36.214Z,14.25
2022-08-23T14:12:22.182Z,12.30
2022-08-23T14:15:14.193Z,18.50
2022-08-23T14:17:51.566Z,9.38
2022-08-23T14:20:46.487Z,10.82
2022-08-23T14:23:20.777Z,15.30
2022-08-23T14:26:09.209Z,16.27
2022-08-23T14:28:49.201Z,18.33
2022-08-23T14:31:35.287Z,14.10
2022-08-23T14:34:22.227Z,12.18
2022-08-23T14:39:57.261Z,12.93
2022-08-23T14:42:37.274Z,20.98
2022-08-23T14:45:20.225Z,16.23
2022-08-23T14:48:00.290Z,20.55
2022-08-23T14:50:41.284Z,13.07
2022-08-23T14:53:35.221Z,24.20
2022-08-23T14:56:21.198Z,22.13
2022-08-23T14:59:08.252Z,21.60
2022-08-23T15:01:49.226Z,17.00
2022-08-23T15:04:43.205Z,15.55
2022-08-23T15:07:30.230Z,24.50
2022-08-23T15:10:49.325Z,14.05
2022-08-23T15:13:21.033Z,18.77
2022-08-23T15:16:14.242Z,19.63
2022-08-23T15:18:57.237Z,16.77
2022-08-23T15:21:44.239Z,21.55
2022-08-23T15:24:17.776Z,13.60
2022-08-23T15:27:06.252Z,17.88
2022-08-23T15:29:39.856Z,13.88
2022-08-23T15:32:26.267Z,14.73
2022-08-23T15:35:01.801Z,17.58
2022-08-23T15:37:50.269Z,14.43
2022-08-23T15:40:25.713Z,19.73
2022-08-23T15:43:13.263Z,16.67
2022-08-23T15:45:48.768Z,19.45
2022-08-23T15:48:42.260Z,26.50
2022-08-23T15:51:18.188Z,10.48
2022-08-23T15:54:06.250Z,16.45
2022-08-23T15:56:55.254Z,19.95
2022-08-23T15:59:44.290Z,13.40
2022-08-23T16:02:25.404Z,23.52
2022-08-23T16:05:12.247Z,21.95
2022-08-23T16:07:46.489Z,12.15
2022-08-23T16:10:34.278Z,16.77
2022-08-23T16:13:22.238Z,22.25
2022-08-23T16:15:56.526Z,14.10
2022-08-23T16:18:43.282Z,19.17
2022-08-23T16:21:20.354Z,19.45
2022-08-23T16:24:07.266Z,17.45
2022-08-23T16:26:44.375Z,16.70
2022-08-23T16:29:34.250Z,13.30
2022-08-23T16:32:08.355Z,22.45
2022-08-23T16:34:55.272Z,19.23
2022-08-23T16:37:28.337Z,21.55
2022-08-23T16:40:16.392Z,22.90
2022-08-23T16:42:50.452Z,20.85
2022-08-23T16:45:37.305Z,16.38
2022-08-23T16:48:14.708Z,46.55
2022-08-23T16:51:01.281Z,29.08
2022-08-23T16:53:35.380Z,25.30
2022-08-23T16:56:23.304Z,25.85
2022-08-23T16:59:04.269Z,30.83
2022-08-23T17:02:10.738Z,43.58
2022-08-23T17:04:58.293Z,46.42
2022-08-23T17:07:32.578Z,24.60
2022-08-23T17:10:21.277Z,17.85
2022-08-23T17:13:05.309Z,18.58
2022-08-23T17:15:59.334Z,17.95
2022-08-23T17:18:46.308Z,17.27
2022-08-23T17:21:31.275Z,18.63
2022-08-23T17:24:25.299Z,14.70
2022-08-23T17:27:19.081Z,13.27
2022-08-23T17:29:54.726Z,20.27
2022-08-23T17:32:41.304Z,21.73
2022-08-23T17:35:16.406Z,16.42
2022-08-23T17:38:03.314Z,16.02
2022-08-23T17:40:42.367Z,30.15
2022-08-23T17:43:29.312Z,20.58
2022-08-23T17:46:10.376Z,22.75
2022-08-23T17:48:57.288Z,20.05
2022-08-23T17:51:38.307Z,22.25
2022-08-23T17:54:25.319Z,20.17
2022-08-23T17:57:07.311Z,16.98
2022-08-23T18:00:01.300Z,28.17
2022-08-23T18:02:49.315Z,37.95
2022-08-23T18:05:23.406Z,23.25
2022-08-23T18:08:10.320Z,25.73
2022-08-23T18:10:50.294Z,19.80
2022-08-23T18:13:39.320Z,20.40
2022-08-23T18:16:14.377Z,20.30
2022-08-23T18:19:01.297Z,12.98
2022-08-23T18:21:35.404Z,12.73
2022-08-23T18:24:23.311Z,18.42
2022-08-23T18:27:19.619Z,13.32
2022-08-23T18:30:08.309Z,19.15
2022-08-23T18:32:42.446Z,13.57
2022-08-23T18:35:32.341Z,12.55
2022-08-23T18:38:06.442Z,12.77
2022-08-23T18:40:54.331Z,10.50
2022-08-23T18:43:37.866Z,10.50
2022-08-23T18:46:25.312Z,8.70
2022-08-23T18:49:06.330Z,15.15
2022-08-23T18:51:53.331Z,9.75
2022-08-23T18:54:34.355Z,11.82
2022-08-23T18:57:22.367Z,10.68
2022-08-23T19:00:03.392Z,9.23
2022-08-23T19:02:50.315Z,10.60
2022-08-23T19:05:23.403Z,9.50
2022-08-23T19:08:12.186Z,12.98
2022-08-23T19:10:55.318Z,11.13
2022-08-23T19:13:49.359Z,12.25
2022-08-23T19:16:38.410Z,12.38
2022-08-23T19:19:13.413Z,11.23
2022-08-23T19:22:00.335Z,10.00
2022-08-23T19:24:35.441Z,16.45
2022-08-23T19:27:22.355Z,14.25
2022-08-23T19:30:03.397Z,17.48
2022-08-23T19:32:46.360Z,18.17
2022-08-23T19:35:30.217Z,15.95
2022-08-23T19:38:10.326Z,22.27
2022-08-23T19:40:58.367Z,19.63
2022-08-23T19:43:32.068Z,16.67
2022-08-23T19:46:23.364Z,18.92
2022-08-23T19:49:17.350Z,18.40
2022-08-23T19:52:05.354Z,18.25
2022-08-23T19:54:45.423Z,27.23
2022-08-23T19:57:26.352Z,19.98
2022-08-23T20:00:14.540Z,26.40
2022-08-23T20:02:58.403Z,25.42
2022-08-23T20:05:39.319Z,34.88
2022-08-23T20:08:20.364Z,27.25
2022-08-23T20:11:01.522Z,27.77
2022-08-23T20:13:42.371Z,24.52
2022-08-23T20:16:26.733Z,24.33
2022-08-23T20:19:07.439Z,27.73
2022-08-23T20:21:48.509Z,29.58
2022-08-23T20:24:42.658Z,24.98
2022-08-23T20:27:31.089Z,27.58
2022-08-23T20:30:14.363Z,33.35
2022-08-23T20:32:54.992Z,30.55
2022-08-23T20:35:35.355Z,30.90
2022-08-23T20:38:32.137Z,29.73
2022-08-23T20:41:16.728Z,28.40
2022-08-23T20:43:57.834Z,29.88
2022-08-23T20:46:38.403Z,21.58
2022-08-23T20:49:32.362Z,25.08
2022-08-23T20:52:19.405Z,21.05
2022-08-23T20:54:53.591Z,33.10
2022-08-23T20:57:40.385Z,27.75
2022-08-23T21:00:22.372Z,26.23
2022-08-23T21:03:09.363Z,27.42
2022-08-23T21:06:45.307Z,23.88
2022-08-23T21:09:48.401Z,25.95
2022-08-23T21:12:22.469Z,20.13
2022-08-23T21:15:11.144Z,27.42
2022-08-23T21:17:46.778Z,31.67
2022-08-23T21:20:34.386Z,21.48
2022-08-23T21:23:15.455Z,23.25
2022-08-23T21:26:11.385Z,23.50
2022-08-23T21:28:59.381Z,18.85
2022-08-23T21:31:33.613Z,18.48
2022-08-23T21:34:20.511Z,30.90
2022-08-23T21:37:00.503Z,29.48
2022-08-23T21:39:41.395Z,33.00
2022-08-23T21:42:29.409Z,26.40
2022-08-23T21:45:03.463Z,30.20
2022-08-23T21:47:50.389Z,29.77
2022-08-23T21:50:24.572Z,26.70
2022-08-23T21:53:16.392Z,28.13
2022-08-23T21:55:56.441Z,26.40
2022-08-23T21:58:44.422Z,20.83
2022-08-23T22:01:19.167Z,20.73
2022-08-23T22:04:06.429Z,18.95
2022-08-23T22:06:51.427Z,21.88
2022-08-23T22:09:35.565Z,16.83
2022-08-23T22:12:16.413Z,19.23
2022-08-23T22:14:57.514Z,23.20
2022-08-23T22:17:37.440Z,18.60
2022-08-23T22:20:18.619Z,17.45
2022-08-23T22:22:59.435Z,20.15
2022-08-23T22:25:46.402Z,16.25
2022-08-23T22:28:26.421Z,20.30
2022-08-23T22:31:20.495Z,23.33
2022-08-23T22:34:00.429Z,22.90
2022-08-23T22:36:52.005Z,21.60
2022-08-23T22:39:33.460Z,24.45
2022-08-23T22:42:22.481Z,20.30
2022-08-23T22:44:56.183Z,27.42
2022-08-23T22:47:43.446Z,17.40
2022-08-23T22:50:17.088Z,19.58
2022-08-23T22:53:04.425Z,23.75
2022-08-23T22:55:44.454Z,21.13
2022-08-23T22:58:31.446Z,19.55
2022-08-23T23:01:13.052Z,17.33
2022-08-23T23:04:01.538Z,16.75
2022-08-23T23:06:43.454Z,20.02
2022-08-23T23:09:31.451Z,24.42
2022-08-23T23:12:11.449Z,19.63
2022-08-23T23:14:52.539Z,19.88
2022-08-23T23:17:33.461Z,19.08
2022-08-23T23:20:32.999Z,21.05
2022-08-23T23:23:24.449Z,19.75
2022-08-23T23:26:14.463Z,24.90
2022-08-23T23:28:54.457Z,21.83
2022-08-23T23:31:34.513Z,18.55
2022-08-23T23:34:15.486Z,19.33
2022-08-23T23:36:56.228Z,22.05
2022-08-23T23:39:36.483Z,20.17
2022-08-23T23:42:17.564Z,23.88
2022-08-23T23:44:57.463Z,19.88
2022-08-23T23:47:38.545Z,25.90
2022-08-23T23:50:20.493Z,21.85
2022-08-23T23:53:08.481Z,21.77
2022-08-23T23:55:49.471Z,17.83
2022-08-23T23:58:29.552Z,22.75
